Time;durP1;ratioP1;P1;durP2;ratioP2;P2;SDS_P1;SDS_P2;PMS_P1;PMS_P2;Temp;Humidity;BMP_temperature;BMP_pressure;BME280_temperature;BME280_humidity;BME280_pressure;Samples;Min_cycle;Max_cycle;Signal;HPM_P1;HPM_P2
2022/05/31 00:02:02;;;;;;;1.13;0.55;;;25.10;38.10;;;;;;4966282;28;20059;-50
2022/05/31 00:04:30;;;;;;;3.35;0.60;;;25.10;38.10;;;;;;4962199;28;20389;-47
2022/05/31 00:06:59;;;;;;;4.43;0.10;;;25.10;38.10;;;;;;4965796;28;20133;-47
2022/05/31 00:09:26;;;;;;;1.05;0.52;;;25.20;38.30;;;;;;4966563;28;20046;-45
2022/05/31 00:11:54;;;;;;;2.38;0.73;;;25.10;38.30;;;;;;4966738;28;20047;-46
2022/05/31 00:14:21;;;;;;;2.25;0.20;;;25.10;38.60;;;;;;4968545;28;20046;-46
2022/05/31 00:16:48;;;;;;;4.80;1.05;;;25.20;39.10;;;;;;4970597;28;20071;-47
2022/05/31 00:19:17;;;;;;;5.82;0.90;;;25.20;39.80;;;;;;4971274;28;20062;-48
2022/05/31 00:21:46;;;;;;;3.42;0.43;;;25.20;40.30;;;;;;4971605;28;20051;-47
2022/05/31 00:24:24;;;;;;;5.35;0.30;;;25.20;40.50;;;;;;4970788;28;20054;-43
2022/05/31 00:26:51;;;;;;;9.10;0.43;;;25.20;41.30;;;;;;4970158;28;20135;-44
2022/05/31 00:29:18;;;;;;;10.65;0.20;;;25.20;41.10;;;;;;4954625;28;20822;-45
2022/05/31 00:31:49;;;;;;;10.70;0.77;;;25.20;41.50;;;;;;4951877;28;20098;-45
2022/05/31 00:34:16;;;;;;;6.38;0.30;;;25.30;42.00;;;;;;4969046;28;20046;-46
2022/05/31 00:36:47;;;;;;;11.40;0.95;;;25.20;42.10;;;;;;4969211;28;20098;-47
2022/05/31 00:39:15;;;;;;;4.43;0.20;;;25.30;42.60;;;;;;4951800;28;20042;-50
2022/05/31 00:41:43;;;;;;;8.30;0.90;;;25.20;42.50;;;;;;4952370;28;20078;-47
2022/05/31 00:44:15;;;;;;;9.10;0.68;;;25.30;42.80;;;;;;4972745;28;20051;-46
2022/05/31 00:46:46;;;;;;;4.45;0.50;;;25.30;43.00;;;;;;4969623;28;20054;-50
2022/05/31 00:49:17;;;;;;;12.43;0.90;;;25.30;43.60;;;;;;4969423;28;20113;-47
2022/05/31 00:51:49;;;;;;;8.00;0.65;;;25.30;44.20;;;;;;4969931;28;20365;-45
2022/05/31 00:54:20;;;;;;;9.02;0.52;;;25.30;44.80;;;;;;4935760;28;20134;-46
2022/05/31 00:56:49;;;;;;;20.13;0.55;;;25.30;45.20;;;;;;4969375;28;20047;-47
2022/05/31 00:59:19;;;;;;;11.00;1.65;;;25.30;45.50;;;;;;4969450;28;20053;-46
2022/05/31 01:01:51;;;;;;;10.40;0.47;;;25.30;45.50;;;;;;4939128;28;20078;-46
2022/05/31 01:04:20;;;;;;;8.30;0.88;;;25.30;45.20;;;;;;4967402;28;20542;-46
2022/05/31 01:06:47;;;;;;;5.72;0.30;;;25.30;45.20;;;;;;4969052;28;20051;-43
2022/05/31 01:09:14;;;;;;;20.02;0.60;;;25.30;45.20;;;;;;4951473;28;20047;-45
2022/05/31 01:11:46;;;;;;;7.03;0.40;;;25.30;45.40;;;;;;4969180;28;20110;-44
2022/05/31 01:14:16;;;;;;;6.50;0.40;;;25.40;45.90;;;;;;4970439;28;20129;-44
2022/05/31 01:17:07;;;;;;;19.15;0.82;;;25.30;46.10;;;;;;4969601;28;20066;-45
2022/05/31 01:20:13;;;;;;;5.82;0.52;;;25.40;46.30;;;;;;4927300;29;20044;-51
2022/05/31 01:23:04;;;;;;;4.03;0.60;;;25.30;46.10;;;;;;4913631;29;20087;-60
2022/05/31 01:25:57;;;;;;;1.40;0.20;;;25.30;45.40;;;;;;4925565;29;20052;-53
2022/05/31 01:28:36;;;;;;;4.25;0.25;;;25.40;43.50;;;;;;4907735;29;20480;-52
2022/05/31 01:31:09;;;;;;;6.72;0.52;;;25.50;42.20;;;;;;4925170;29;20583;-49
2022/05/31 01:33:43;;;;;;;5.38;0.10;;;25.60;40.40;;;;;;4928019;29;20154;-51
2022/05/31 01:36:16;;;;;;;4.15;0.20;;;25.70;39.60;;;;;;4930636;29;20143;-52
2022/05/31 01:38:48;;;;;;;2.97;0.10;;;25.90;38.90;;;;;;4924350;29;20465;-53
2022/05/31 01:41:22;;;;;;;2.42;0.57;;;26.00;38.10;;;;;;4926037;29;20115;-54
2022/05/31 01:43:52;;;;;;;2.28;0.35;;;26.10;37.40;;;;;;4910438;29;20126;-50
2022/05/31 01:46:23;;;;;;;1.90;0.10;;;26.20;36.70;;;;;;4927263;29;20069;-52
2022/05/31 01:48:51;;;;;;;1.20;0.10;;;26.30;36.20;;;;;;4926392;29;20132;-56
2022/05/31 01:51:20;;;;;;;0.98;0.10;;;26.40;35.80;;;;;;4925335;29;20440;-56
2022/05/31 01:53:47;;;;;;;2.45;0.35;;;26.40;35.40;;;;;;4938501;28;20046;-53
2022/05/31 01:56:14;;;;;;;1.92;0.32;;;26.50;34.90;;;;;;4952524;28;20049;-47
2022/05/31 01:58:47;;;;;;;3.17;0.68;;;26.60;34.60;;;;;;4967206;28;20058;-48
2022/05/31 02:01:15;;;;;;;1.23;0.30;;;26.60;34.30;;;;;;4950974;28;20050;-54
2022/05/31 02:03:44;;;;;;;1.48;0.20;;;26.60;33.90;;;;;;4968920;28;20133;-56
2022/05/31 02:06:27;;;;;;;6.97;0.30;;;26.70;33.50;;;;;;4968650;28;20054;-56
2022/05/31 02:08:56;;;;;;;5.88;0.52;;;26.80;33.20;;;;;;4951244;28;20039;-50
2022/05/31 02:11:23;;;;;;;0.40;0.10;;;26.80;33.10;;;;;;4952268;28;20051;-59
2022/05/31 02:13:54;;;;;;;1.42;0.22;;;26.80;33.00;;;;;;4964663;28;20072;-57
2022/05/31 02:16:26;;;;;;;2.58;0.20;;;26.80;32.80;;;;;;4935738;28;20065;-50
2022/05/31 02:19:23;;;;;;;0.63;0.10;;;26.90;32.70;;;;;;4963868;28;20046;-54
2022/05/31 02:22:22;;;;;;;3.80;0.20;;;26.80;32.50;;;;;;4961147;28;20054;-54
2022/05/31 02:24:49;;;;;;;5.22;0.52;;;26.90;33.10;;;;;;4949726;28;20091;-52
2022/05/31 02:27:17;;;;;;;0.35;0.10;;;26.90;32.50;;;;;;4967639;28;20047;-56
2022/05/31 02:29:45;;;;;;;3.40;0.22;;;26.90;32.30;;;;;;4968510;28;20047;-52
2022/05/31 02:32:14;;;;;;;7.15;0.45;;;27.00;32.40;;;;;;4969935;28;20047;-57
2022/05/31 02:34:44;;;;;;;2.97;0.30;;;27.00;32.20;;;;;;4949748;28;20052;-49
2022/05/31 02:37:11;;;;;;;0.40;0.10;;;27.00;32.20;;;;;;4965421;28;20038;-53
2022/05/31 02:39:40;;;;;;;0.50;0.45;;;27.00;32.10;;;;;;4949220;28;20049;-55
2022/05/31 02:42:09;;;;;;;3.58;0.85;;;27.00;32.00;;;;;;4960601;28;20057;-55
2022/05/31 02:44:37;;;;;;;0.50;0.10;;;27.00;32.00;;;;;;4949097;28;20062;-57
2022/05/31 02:47:05;;;;;;;0.40;0.40;;;27.00;31.90;;;;;;4967147;28;20055;-54
2022/05/31 02:49:32;;;;;;;0.43;0.32;;;27.10;32.10;;;;;;4950336;28;20043;-52
2022/05/31 02:52:00;;;;;;;0.55;0.10;;;27.10;32.00;;;;;;4965206;28;20038;-56
2022/05/31 02:54:28;;;;;;;1.23;0.20;;;27.10;31.90;;;;;;4963595;28;20050;-52
2022/05/31 02:57:15;;;;;;;;;;;27.10;31.90;;;;;;4966857;28;20380;-52
2022/05/31 03:00:02;;;;;;;0.52;0.47;;;27.10;31.80;;;;;;4960763;28;19926;-55
2022/05/31 03:02:44;;;;;;;2.70;0.10;;;27.00;31.70;;;;;;4966955;28;20051;-45
2022/05/31 03:05:30;;;;;;;0.55;0.10;;;27.10;31.80;;;;;;4965702;28;20070;-53
2022/05/31 03:08:09;;;;;;;1.80;0.10;;;27.10;31.80;;;;;;4949144;28;20432;-51
2022/05/31 03:11:04;;;;;;;1.70;0.10;;;27.10;31.90;;;;;;4963294;28;20123;-44
2022/05/31 03:13:34;;;;;;;0.35;0.20;;;27.10;31.90;;;;;;4963977;28;20878;-45
2022/05/31 03:16:03;;;;;;;0.30;0.10;;;27.20;32.00;;;;;;4948416;28;20034;-58
2022/05/31 03:18:34;;;;;;;2.67;0.10;;;27.20;32.00;;;;;;4971442;28;20046;-58
2022/05/31 03:21:08;;;;;;;1.90;0.20;;;27.20;32.10;;;;;;4966077;28;20737;-57
2022/05/31 03:23:39;;;;;;;0.63;0.32;;;27.20;32.00;;;;;;4965716;28;20066;-51
2022/05/31 03:26:09;;;;;;;1.50;0.10;;;27.30;32.10;;;;;;4948597;28;20118;-51
2022/05/31 03:28:38;;;;;;;2.42;0.20;;;27.30;31.80;;;;;;4967526;28;20050;-50
2022/05/31 03:31:05;;;;;;;1.20;1.10;;;27.30;31.90;;;;;;4954634;28;20575;-53
2022/05/31 03:33:33;;;;;;;0.73;0.10;;;27.30;31.90;;;;;;4965223;28;20046;-51
2022/05/31 03:36:01;;;;;;;0.60;0.55;;;27.30;32.00;;;;;;4967126;28;20055;-47
2022/05/31 03:38:47;;;;;;;2.38;0.20;;;27.30;31.90;;;;;;4947574;28;20046;-53
2022/05/31 03:41:15;;;;;;;1.75;0.25;;;27.30;31.80;;;;;;4951715;28;20047;-53
2022/05/31 03:43:46;;;;;;;2.15;0.20;;;27.30;31.80;;;;;;4949405;28;20053;-49
2022/05/31 03:46:24;;;;;;;2.35;0.50;;;27.40;32.10;;;;;;4962786;28;20039;-55
2022/05/31 03:49:10;;;;;;;1.42;0.77;;;27.30;32.10;;;;;;4963481;28;20610;-50
2022/05/31 03:51:40;;;;;;;1.50;0.10;;;27.30;32.10;;;;;;4944902;28;20419;-50
2022/05/31 03:54:16;;;;;;;0.95;0.10;;;27.30;32.10;;;;;;4952971;28;20531;-48
2022/05/31 03:57:15;;;;;;;1.08;0.20;;;27.30;32.30;;;;;;4948623;28;20071;-47
2022/05/31 03:59:44;;;;;;;1.90;0.30;;;27.20;32.70;;;;;;4948758;28;20046;-52
2022/05/31 04:02:11;;;;;;;1.73;0.10;;;27.00;32.90;;;;;;4950004;29;20078;-52
2022/05/31 04:04:40;;;;;;;0.90;0.10;;;26.90;33.10;;;;;;4949262;28;20079;-49
2022/05/31 04:07:09;;;;;;;1.23;0.20;;;26.80;33.30;;;;;;4948621;28;20043;-52
2022/05/31 04:09:38;;;;;;;0.40;0.40;;;26.60;33.50;;;;;;4932636;29;20059;-51
2022/05/31 04:12:09;;;;;;;2.72;0.90;;;26.60;33.90;;;;;;4932682;29;20102;-52
2022/05/31 04:14:56;;;;;;;1.17;0.20;;;26.40;33.80;;;;;;4948646;28;20047;-50
2022/05/31 04:17:24;;;;;;;1.55;0.10;;;26.30;34.00;;;;;;4962426;28;20062;-49
2022/05/31 04:19:51;;;;;;;1.55;0.65;;;26.30;34.20;;;;;;4965043;28;20074;-51
2022/05/31 04:22:18;;;;;;;0.30;0.20;;;26.20;34.30;;;;;;4948027;28;20051;-48
2022/05/31 04:24:46;;;;;;;1.38;0.50;;;26.10;34.40;;;;;;4948648;28;20103;-51
2022/05/31 04:27:42;;;;;;;2.40;0.20;;;26.10;34.40;;;;;;4938029;28;20520;-50
2022/05/31 04:30:30;;;;;;;6.22;0.30;;;26.00;34.60;;;;;;4943546;28;20050;-51
2022/05/31 04:33:29;;;;;;;0.50;0.10;;;25.90;34.70;;;;;;4951982;28;20069;-50
2022/05/31 04:36:00;;;;;;;0.25;0.20;;;25.80;34.10;;;;;;4948324;28;20042;-47
2022/05/31 04:38:28;;;;;;;0.75;0.10;;;25.70;33.70;;;;;;4970832;28;20047;-48
2022/05/31 04:41:05;;;;;;;2.95;0.10;;;25.60;33.60;;;;;;4969565;28;20117;-52
2022/05/31 04:43:51;;;;;;;3.53;0.35;;;25.50;33.60;;;;;;4968130;28;20055;-53
2022/05/31 04:46:27;;;;;;;2.70;0.20;;;25.40;33.50;;;;;;4969453;28;20422;-50
2022/05/31 04:49:02;;;;;;;1.13;0.20;;;25.30;33.60;;;;;;4952455;28;20043;-47
2022/05/31 04:51:32;;;;;;;1.75;0.10;;;25.20;34.30;;;;;;4952974;28;20042;-51
2022/05/31 04:54:00;;;;;;;5.13;0.17;;;25.10;33.80;;;;;;4968465;28;20039;-47
2022/05/31 04:57:04;;;;;;;3.20;0.20;;;25.00;34.30;;;;;;4945678;28;20066;-52
2022/05/31 04:59:32;;;;;;;1.30;0.30;;;24.90;33.90;;;;;;4953124;28;20055;-50
2022/05/31 05:02:00;;;;;;;1.17;0.55;;;24.80;33.90;;;;;;4952932;28;20062;-50
2022/05/31 05:04:48;;;;;;;1.02;0.10;;;24.80;34.00;;;;;;4969473;28;20063;-50
2022/05/31 05:07:31;;;;;;;0.40;0.10;;;24.60;34.40;;;;;;4975528;28;20150;-47
2022/05/31 05:09:58;;;;;;;1.35;0.38;;;24.60;34.60;;;;;;4951964;28;20046;-50
2022/05/31 05:12:25;;;;;;;6.05;0.17;;;24.60;34.70;;;;;;4969415;28;20054;-52
2022/05/31 05:15:00;;;;;;;0.57;0.15;;;24.50;34.80;;;;;;4963857;28;20125;-50
2022/05/31 05:17:31;;;;;;;1.65;0.17;;;24.50;34.90;;;;;;4970009;28;20054;-50
2022/05/31 05:19:59;;;;;;;3.53;0.20;;;24.50;35.10;;;;;;4952628;28;20090;-49
2022/05/31 05:22:28;;;;;;;0.30;0.10;;;24.50;35.20;;;;;;4951588;28;20041;-50
2022/05/31 05:24:57;;;;;;;6.78;0.10;;;24.40;35.00;;;;;;4975553;28;20093;-50
2022/05/31 05:27:24;;;;;;;1.13;0.25;;;24.40;35.10;;;;;;4969224;28;20508;-48
2022/05/31 05:32:44;;;;;;;1.45;0.28;;;24.40;35.20;;;;;;4965277;28;20055;-51
2022/05/31 05:35:37;;;;;;;1.00;0.10;;;24.40;35.30;;;;;;4965985;28;20051;-50
2022/05/31 05:38:09;;;;;;;2.15;0.10;;;24.30;35.30;;;;;;4952712;28;20046;-50
2022/05/31 05:40:57;;;;;;;0.93;0.10;;;24.30;35.30;;;;;;4969360;28;20062;-53
2022/05/31 05:43:33;;;;;;;3.00;1.05;;;24.30;35.40;;;;;;4949256;28;20047;-52
2022/05/31 05:46:03;;;;;;;3.92;0.10;;;24.30;35.30;;;;;;4950925;28;20034;-54
2022/05/31 05:48:32;;;;;;;0.30;0.10;;;24.20;35.30;;;;;;4978194;28;20515;-51
2022/05/31 05:50:59;;;;;;;2.58;0.20;;;24.20;35.30;;;;;;4951452;28;20503;-50
2022/05/31 05:53:57;;;;;;;5.93;0.20;;;24.20;35.40;;;;;;4887881;29;20445;-47
2022/05/31 05:56:45;;;;;;;1.55;0.20;;;24.20;35.60;;;;;;4876788;29;20067;-54
2022/05/31 05:59:34;;;;;;;2.30;0.10;;;24.10;35.50;;;;;;4872817;29;20053;-53
2022/05/31 06:02:28;;;;;;;5.22;0.60;;;24.10;35.50;;;;;;4873199;29;20053;-50
2022/05/31 06:05:17;;;;;;;3.42;0.20;;;24.10;35.30;;;;;;4875067;29;20155;-51
2022/05/31 06:07:47;;;;;;;5.07;0.52;;;24.10;35.20;;;;;;4862853;29;20446;-49
2022/05/31 06:10:18;;;;;;;2.65;0.30;;;24.10;35.40;;;;;;4875018;29;20053;-53
2022/05/31 06:12:50;;;;;;;1.55;0.22;;;24.10;35.40;;;;;;4871411;29;20056;-48
2022/05/31 06:15:22;;;;;;;2.28;0.22;;;24.10;35.30;;;;;;4871623;29;20061;-49
2022/05/31 06:17:53;;;;;;;4.13;0.38;;;24.00;35.20;;;;;;4869754;29;27517;-48
2022/05/31 06:20:23;;;;;;;0.93;0.17;;;24.00;35.30;;;;;;4876736;29;20137;-50
2022/05/31 06:22:50;;;;;;;4.18;0.30;;;24.00;35.30;;;;;;4855480;29;20059;-53
2022/05/31 06:25:21;;;;;;;2.25;0.13;;;24.00;35.40;;;;;;4876983;29;20040;-50
2022/05/31 06:27:54;;;;;;;3.53;0.30;;;24.00;35.40;;;;;;4881739;29;20139;-49
2022/05/31 06:30:22;;;;;;;2.78;0.38;;;23.90;35.20;;;;;;4902253;29;20668;-51
2022/05/31 06:32:49;;;;;;;1.75;0.20;;;23.90;35.10;;;;;;4909423;28;20048;-50
2022/05/31 06:35:17;;;;;;;0.38;0.10;;;23.90;35.00;;;;;;4956914;28;20086;-51
2022/05/31 06:37:58;;;;;;;2.95;0.13;;;23.90;35.30;;;;;;4952301;28;20054;-51
2022/05/31 06:40:25;;;;;;;4.20;0.20;;;24.00;35.30;;;;;;4949148;28;20051;-52
2022/05/31 06:43:08;;;;;;;1.60;0.40;;;23.90;35.10;;;;;;4970132;28;20062;-50
2022/05/31 06:45:54;;;;;;;1.15;0.20;;;23.90;35.60;;;;;;4967535;28;20057;-51
2022/05/31 06:48:41;;;;;;;2.22;0.20;;;23.90;35.00;;;;;;4966730;28;20452;-51
2022/05/31 06:57:52;;;;;;;3.13;0.32;;;23.80;35.70;;;;;;4955532;28;20423;-46
2022/05/31 07:00:32;;;;;;;3.70;0.40;;;23.90;36.10;;;;;;4946079;28;20319;-53
2022/05/31 07:03:00;;;;;;;0.40;0.25;;;23.90;35.80;;;;;;4929746;28;20077;-52
2022/05/31 07:05:40;;;;;;;0.73;0.28;;;23.90;36.10;;;;;;4951830;28;20050;-50
2022/05/31 07:08:08;;;;;;;0.77;0.47;;;24.10;35.90;;;;;;4948095;28;20208;-47
2022/05/31 07:10:56;;;;;;;4.65;0.75;;;24.10;35.10;;;;;;4964080;28;20043;-51
2022/05/31 07:13:42;;;;;;;4.10;0.22;;;24.40;34.90;;;;;;4942135;28;20125;-53
2022/05/31 07:16:24;;;;;;;3.17;0.20;;;24.50;34.50;;;;;;4962654;28;20101;-58
2022/05/31 07:18:56;;;;;;;0.73;0.52;;;24.60;34.20;;;;;;4955502;28;20126;-59
2022/05/31 07:21:25;;;;;;;4.25;0.70;;;24.70;34.00;;;;;;4937277;28;20061;-54
2022/05/31 07:23:53;;;;;;;2.65;0.45;;;24.90;33.80;;;;;;4949119;28;20066;-64
2022/05/31 07:26:24;;;;;;;3.30;0.40;;;25.00;33.70;;;;;;4949021;28;20507;-57
2022/05/31 07:28:54;;;;;;;3.03;0.10;;;25.20;33.90;;;;;;4955561;28;20054;-60
2022/05/31 07:31:22;;;;;;;4.70;0.10;;;25.30;33.70;;;;;;4971046;28;20042;-62
2022/05/31 07:33:59;;;;;;;2.28;0.55;;;25.40;33.50;;;;;;4973868;28;20050;-62
2022/05/31 07:36:27;;;;;;;1.80;0.47;;;25.60;33.40;;;;;;4956553;28;20463;-63
2022/05/31 07:39:13;;;;;;;;;;;25.70;33.30;;;;;;4956671;28;20046;-62
2022/05/31 07:41:44;;;;;;;1.05;0.10;;;25.70;33.20;;;;;;4973506;28;20482;-62
2022/05/31 07:44:14;;;;;;;3.17;0.40;;;25.90;33.30;;;;;;4975612;28;20053;-59
2022/05/31 07:46:43;;;;;;;0.52;0.15;;;26.00;33.00;;;;;;4955183;28;20054;-61
2022/05/31 07:49:11;;;;;;;2.58;0.68;;;26.10;32.80;;;;;;4955940;28;20039;-60
2022/05/31 07:52:08;;;;;;;0.93;0.10;;;26.20;32.70;;;;;;4977184;28;20042;-58
2022/05/31 07:54:54;;;;;;;5.28;0.17;;;26.40;32.40;;;;;;4975620;28;20047;-59
2022/05/31 08:00:49;;;;;;;0.98;0.35;;;26.50;32.10;;;;;;4923022;29;20158;-58
2022/05/31 08:03:18;;;;;;;5.28;0.20;;;26.60;31.80;;;;;;4923241;29;20902;-60
2022/05/31 08:05:45;;;;;;;2.08;0.20;;;26.70;31.60;;;;;;4920195;29;20600;-63
2022/05/31 08:08:12;;;;;;;3.03;0.10;;;26.70;31.40;;;;;;4920301;29;20062;-67
2022/05/31 08:10:39;;;;;;;4.50;0.30;;;26.80;31.40;;;;;;4919034;29;20588;-60
2022/05/31 08:13:08;;;;;;;0.43;0.20;;;26.90;31.50;;;;;;4922975;29;20646;-60
2022/05/31 08:15:35;;;;;;;1.65;0.10;;;27.00;31.50;;;;;;4918317;29;20578;-60
2022/05/31 08:18:03;;;;;;;1.70;0.20;;;27.00;31.20;;;;;;4912880;29;20056;-59
2022/05/31 08:20:30;;;;;;;2.25;0.17;;;27.10;31.30;;;;;;4914475;29;20178;-57
2022/05/31 08:22:57;;;;;;;0.85;0.20;;;27.20;31.10;;;;;;4919551;29;20051;-57
2022/05/31 08:25:24;;;;;;;1.75;1.05;;;27.20;30.90;;;;;;4915681;29;20084;-59
2022/05/31 08:27:52;;;;;;;3.63;0.20;;;27.30;30.80;;;;;;4914719;29;20062;-60
2022/05/31 08:30:20;;;;;;;4.78;0.20;;;27.30;30.40;;;;;;4912371;29;20620;-62
2022/05/31 08:32:47;;;;;;;7.85;0.43;;;27.40;30.40;;;;;;4911925;29;20044;-63
2022/05/31 08:35:14;;;;;;;2.78;0.68;;;27.40;30.30;;;;;;4899681;29;20450;-65
2022/05/31 08:37:42;;;;;;;0.98;0.20;;;27.50;30.40;;;;;;4930011;28;20059;-63
2022/05/31 08:40:11;;;;;;;2.78;0.10;;;27.50;30.90;;;;;;4952687;28;20036;-60
2022/05/31 08:42:50;;;;;;;0.93;0.20;;;27.50;30.00;;;;;;4949179;28;20618;-63
2022/05/31 08:45:33;;;;;;;1.27;0.10;;;27.60;29.90;;;;;;4945587;28;20051;-60
2022/05/31 08:48:09;;;;;;;0.50;0.20;;;27.60;29.80;;;;;;4939491;28;20051;-63
2022/05/31 08:53:35;;;;;;;1.83;0.05;;;27.70;30.00;;;;;;4949968;28;20078;-64
2022/05/31 08:58:56;;;;;;;2.45;0.32;;;27.70;29.90;;;;;;4960731;28;20054;-57
2022/05/31 09:01:29;;;;;;;2.85;0.10;;;27.70;29.60;;;;;;4958796;28;20081;-59
2022/05/31 09:04:01;;;;;;;0.60;0.30;;;27.70;29.40;;;;;;4972403;28;20093;-61
2022/05/31 09:06:31;;;;;;;0.40;0.10;;;27.80;29.50;;;;;;4952742;28;20051;-64
2022/05/31 09:09:04;;;;;;;0.68;0.20;;;27.80;29.20;;;;;;4951809;28;20562;-52
2022/05/31 09:11:35;;;;;;;1.42;0.05;;;27.80;29.00;;;;;;4968604;28;20507;-51
2022/05/31 09:14:09;;;;;;;2.67;0.17;;;27.80;28.80;;;;;;4972397;28;20042;-51
2022/05/31 09:16:46;;;;;;;5.40;0.10;;;27.80;28.70;;;;;;4967854;28;20067;-51
2022/05/31 09:19:18;;;;;;;2.53;0.17;;;27.80;28.60;;;;;;4974060;28;20066;-54
2022/05/31 09:21:48;;;;;;;2.30;1.05;;;27.80;28.50;;;;;;4966452;28;20050;-52
2022/05/31 09:24:18;;;;;;;0.85;0.10;;;27.80;28.60;;;;;;4970859;28;20202;-55
2022/05/31 09:27:00;;;;;;;0.95;0.10;;;27.70;28.40;;;;;;4968436;28;20507;-52
2022/05/31 09:29:34;;;;;;;2.33;0.10;;;27.70;28.50;;;;;;4970610;28;20051;-50
2022/05/31 09:32:09;;;;;;;0.40;0.13;;;27.70;28.50;;;;;;4971562;28;20047;-61
2022/05/31 09:34:56;;;;;;;0.65;0.10;;;27.70;28.40;;;;;;4968199;28;20078;-56
2022/05/31 09:37:43;;;;;;;0.40;0.00;;;27.70;28.30;;;;;;4972914;28;20428;-57
2022/05/31 09:40:26;;;;;;;0.10;0.00;;;27.70;28.70;;;;;;4972209;28;20157;-66
2022/05/31 09:43:03;;;;;;;1.27;0.45;;;27.70;28.40;;;;;;4968443;28;20887;-61
2022/05/31 09:45:33;;;;;;;1.70;0.25;;;27.60;28.20;;;;;;4970868;28;20134;-54
2022/05/31 09:48:05;;;;;;;0.05;0.05;;;27.60;28.20;;;;;;4977468;28;20038;-61
2022/05/31 09:50:33;;;;;;;0.00;0.00;;;27.60;28.10;;;;;;4974753;28;20070;-62
2022/05/31 09:57:05;;;;;;;2.13;0.00;;;27.60;28.10;;;;;;4970273;28;20063;-60
2022/05/31 09:59:09;;;;;;;0.30;0.10;;;27.60;27.90;;;;;;4974124;28;20043;-55
2022/05/31 10:01:55;;;;;;;0.00;0.00;;;27.60;27.70;;;;;;4972022;28;20058;-59
2022/05/31 10:04:30;;;;;;;0.50;0.50;;;27.60;27.40;;;;;;4973076;28;20126;-54
2022/05/31 10:07:01;;;;;;;2.15;0.20;;;27.60;27.50;;;;;;4973013;28;20043;-62
2022/05/31 10:09:35;;;;;;;0.30;0.10;;;27.60;27.40;;;;;;4967548;28;20133;-48
2022/05/31 10:12:20;;;;;;;0.25;0.10;;;27.60;27.20;;;;;;4962026;28;20531;-48
2022/05/31 10:14:51;;;;;;;1.55;0.38;;;27.70;27.20;;;;;;4966052;28;20069;-48
2022/05/31 10:17:37;;;;;;;1.20;0.10;;;27.60;27.10;;;;;;4971489;28;20046;-57
2022/05/31 10:20:18;;;;;;;0.25;0.20;;;27.70;27.20;;;;;;4981879;28;20133;-45
2022/05/31 10:22:58;;;;;;;0.15;0.10;;;27.70;27.20;;;;;;4971923;28;20046;-51
2022/05/31 10:25:47;;;;;;;0.55;0.10;;;27.80;27.20;;;;;;4968738;28;20057;-68
2022/05/31 10:28:43;;;;;;;5.32;0.20;;;27.80;27.00;;;;;;4890817;29;20910;-63
2022/05/31 10:31:32;;;;;;;0.65;0.10;;;27.90;27.00;;;;;;4890065;29;20048;-57
2022/05/31 10:34:02;;;;;;;3.88;0.13;;;27.90;26.90;;;;;;4891509;29;20109;-60
2022/05/31 10:36:33;;;;;;;0.45;0.00;;;28.00;26.60;;;;;;4892234;29;20067;-65
2022/05/31 10:39:08;;;;;;;0.50;0.10;;;28.10;26.40;;;;;;4887468;29;20147;-65
2022/05/31 10:41:38;;;;;;;0.35;0.35;;;28.20;26.40;;;;;;4889898;29;20048;-64
2022/05/31 10:44:14;;;;;;;0.10;0.00;;;28.20;26.20;;;;;;4893381;29;20167;-57
2022/05/31 10:46:43;;;;;;;;;;;28.30;26.10;;;;;;4894565;29;20377;-56
2022/05/31 10:49:17;;;;;;;1.63;0.25;;;28.30;26.00;;;;;;4889118;29;19990;-57
2022/05/31 10:51:56;;;;;;;0.30;0.10;;;28.40;26.20;;;;;;4890551;29;20048;-57
2022/05/31 10:54:44;;;;;;;0.28;0.03;;;28.40;26.10;;;;;;4883565;29;20168;-58
2022/05/31 10:57:24;;;;;;;3.20;0.10;;;28.50;26.10;;;;;;4887568;29;20128;-61
2022/05/31 10:59:55;;;;;;;2.33;0.45;;;28.50;25.80;;;;;;4883934;29;20144;-51
2022/05/31 11:02:46;;;;;;;0.77;0.10;;;28.60;25.70;;;;;;4872579;29;20135;-48
2022/05/31 11:05:15;;;;;;;0.30;0.10;;;28.60;25.90;;;;;;4909654;28;20051;-49
2022/05/31 11:13:37;;;;;;;1.75;0.10;;;28.60;26.00;;;;;;4964883;28;20462;-55
2022/05/31 11:16:15;;;;;;;1.27;0.45;;;28.70;26.10;;;;;;4973793;28;20511;-57
2022/05/31 11:19:04;;;;;;;1.02;0.52;;;28.60;26.40;;;;;;4967804;28;20754;-57
2022/05/31 11:21:49;;;;;;;1.65;0.10;;;28.70;26.40;;;;;;4960754;28;20467;-58
2022/05/31 11:24:33;;;;;;;0.50;0.10;;;28.70;26.40;;;;;;4966353;28;20043;-59
2022/05/31 11:27:13;;;;;;;1.02;0.10;;;28.80;26.60;;;;;;4965505;28;20150;-58
2022/05/31 11:30:03;;;;;;;0.10;0.10;;;28.70;26.50;;;;;;4964920;28;20049;-56
2022/05/31 11:32:46;;;;;;;1.85;0.10;;;28.80;26.30;;;;;;4964364;28;20097;-58
2022/05/31 11:35:24;;;;;;;3.30;0.10;;;28.80;26.00;;;;;;4967214;28;20051;-59
2022/05/31 11:38:04;;;;;;;0.38;0.10;;;28.80;25.90;;;;;;4964400;28;20046;-57
2022/05/31 11:40:45;;;;;;;0.38;0.08;;;28.80;26.10;;;;;;4962321;28;20134;-60
2022/05/31 11:43:58;;;;;;;2.58;0.30;;;28.80;26.20;;;;;;4964655;28;20043;-58
2022/05/31 11:46:30;;;;;;;0.15;0.15;;;28.80;26.30;;;;;;4962493;28;20389;-58
2022/05/31 11:49:01;;;;;;;0.55;0.10;;;28.80;26.30;;;;;;4965451;28;20046;-58
2022/05/31 11:51:52;;;;;;;0.93;0.10;;;28.80;26.40;;;;;;4967516;28;20054;-58
2022/05/31 11:54:33;;;;;;;0.38;0.10;;;28.80;26.30;;;;;;4963320;28;20050;-58
2022/05/31 11:57:14;;;;;;;4.15;0.10;;;28.80;26.30;;;;;;4961044;28;20507;-57
2022/05/31 11:59:46;;;;;;;0.25;0.20;;;28.90;26.20;;;;;;4967094;28;20047;-51
2022/05/31 12:02:21;;;;;;;1.50;0.10;;;28.90;26.50;;;;;;4963786;28;20051;-60
2022/05/31 12:04:53;;;;;;;3.53;0.00;;;28.90;26.10;;;;;;4966112;28;20412;-54
2022/05/31 12:07:26;;;;;;;0.22;0.20;;;29.00;26.00;;;;;;4966062;28;20116;-63
2022/05/31 12:09:59;;;;;;;0.25;0.08;;;29.00;26.10;;;;;;4968533;28;20043;-59
2022/05/31 12:12:30;;;;;;;0.10;0.10;;;29.00;26.00;;;;;;4970003;28;20049;-60
2022/05/31 12:15:06;;;;;;;0.25;0.17;;;29.10;25.90;;;;;;4970139;28;20042;-59
2022/05/31 12:17:38;;;;;;;0.47;0.40;;;29.10;26.00;;;;;;4964194;28;20057;-61
2022/05/31 12:20:15;;;;;;;1.77;0.20;;;29.10;25.70;;;;;;4971735;28;20062;-63
2022/05/31 12:22:50;;;;;;;0.38;0.08;;;29.10;25.70;;;;;;4968722;28;20053;-59
2022/05/31 12:25:23;;;;;;;0.50;0.00;;;29.10;25.50;;;;;;4970531;28;20493;-62
2022/05/31 12:27:57;;;;;;;0.05;0.00;;;29.10;25.50;;;;;;4965330;28;20047;-66
2022/05/31 12:30:28;;;;;;;1.15;0.03;;;29.10;25.30;;;;;;4968965;28;20081;-50
2022/05/31 12:32:56;;;;;;;0.70;0.10;;;29.10;25.40;;;;;;4967512;28;20109;-62
2022/05/31 12:35:53;;;;;;;1.20;0.10;;;29.10;25.60;;;;;;4956573;28;20046;-56
2022/05/31 12:38:21;;;;;;;1.50;0.00;;;29.20;25.60;;;;;;4970832;28;20035;-59
2022/05/31 12:40:51;;;;;;;3.28;0.10;;;29.10;25.30;;;;;;4966591;28;20042;-59
2022/05/31 12:43:51;;;;;;;0.28;0.00;;;29.10;25.30;;;;;;4968983;28;20043;-60
2022/05/31 12:46:27;;;;;;;0.10;0.00;;;29.20;25.40;;;;;;4965488;28;20058;-60
2022/05/31 12:48:59;;;;;;;2.25;0.10;;;29.20;25.40;;;;;;4948633;28;20074;-55
2022/05/31 12:51:26;;;;;;;0.70;0.08;;;29.20;25.30;;;;;;4968657;28;20062;-67
2022/05/31 12:54:11;;;;;;;0.08;0.00;;;29.30;25.30;;;;;;4972091;28;20050;-62
2022/05/31 12:57:02;;;;;;;0.65;0.10;;;29.30;25.30;;;;;;4967669;28;20515;-61
2022/05/31 12:59:49;;;;;;;0.00;0.00;;;29.40;25.30;;;;;;4970249;28;20877;-60
2022/05/31 13:02:35;;;;;;;0.03;0.00;;;29.40;25.40;;;;;;4969287;28;20053;-61
2022/05/31 13:05:09;;;;;;;0.00;0.00;;;29.50;25.40;;;;;;4968017;28;20038;-61
2022/05/31 13:07:46;;;;;;;0.70;0.10;;;29.50;25.30;;;;;;4966071;28;20049;-59
2022/05/31 13:10:36;;;;;;;0.08;0.00;;;29.50;25.20;;;;;;4963500;28;20050;-59
2022/05/31 13:21:30;;;;;;;1.75;0.30;;;29.50;25.20;;;;;;4970666;28;20039;-64
2022/05/31 13:23:59;;;;;;;0.10;0.00;;;29.50;25.10;;;;;;4965020;28;20049;-55
2022/05/31 13:26:30;;;;;;;0.35;0.00;;;29.50;25.10;;;;;;4967636;28;20109;-59
2022/05/31 13:29:01;;;;;;;1.42;0.00;;;29.50;25.50;;;;;;4970048;28;20068;-68
2022/05/31 13:31:35;;;;;;;1.73;0.10;;;29.60;25.10;;;;;;4965211;28;20085;-60
2022/05/31 13:34:06;;;;;;;0.32;0.10;;;29.60;25.00;;;;;;4968816;28;20039;-57
2022/05/31 13:36:41;;;;;;;0.10;0.10;;;29.60;25.30;;;;;;4969265;28;20050;-58
2022/05/31 13:39:13;;;;;;;0.30;0.30;;;29.60;25.00;;;;;;4968174;28;20039;-57
2022/05/31 13:41:47;;;;;;;0.47;0.10;;;29.60;24.80;;;;;;4968624;28;20613;-58
2022/05/31 13:44:19;;;;;;;0.65;0.15;;;29.60;24.70;;;;;;4968156;28;20097;-58
2022/05/31 13:46:49;;;;;;;0.55;0.00;;;29.60;24.70;;;;;;4969180;28;20061;-59
2022/05/31 13:49:23;;;;;;;0.95;0.73;;;29.60;24.90;;;;;;4967849;28;20043;-59
2022/05/31 13:51:52;;;;;;;0.75;0.00;;;29.60;25.10;;;;;;4966376;28;20047;-59
2022/05/31 13:54:21;;;;;;;0.08;0.00;;;29.60;25.00;;;;;;4953170;28;20078;-57
2022/05/31 13:56:55;;;;;;;0.00;0.00;;;29.60;24.50;;;;;;4968077;28;20053;-63
2022/05/31 13:59:33;;;;;;;0.20;0.10;;;29.60;24.30;;;;;;4970412;28;20309;-53
2022/05/31 14:02:04;;;;;;;0.10;0.10;;;29.60;25.00;;;;;;4949416;28;20053;-57
2022/05/31 14:04:35;;;;;;;0.10;0.00;;;29.60;25.30;;;;;;4966641;28;20043;-55